createdAt,value
2023-02-15T00:00:29.803Z,103037.81
2023-02-15T00:02:58.828Z,103040.53
2023-02-15T00:05:30.365Z,103044.03
2023-02-15T00:07:59.212Z,103033.41
2023-02-15T00:10:27.708Z,103036.88
2023-02-15T00:12:57.401Z,103029.00
2023-02-15T00:15:38.513Z,103035.13
2023-02-15T00:18:09.606Z,103033.31
2023-02-15T00:20:58.816Z,103024.47
2023-02-15T00:23:37.535Z,103020.94
2023-02-15T00:26:11.131Z,103024.41
2023-02-15T00:28:41.487Z,103035.06
2023-02-15T00:31:15.244Z,103027.97
2023-02-15T00:33:46.512Z,103016.47
2023-02-15T00:36:40.545Z,103015.41
2023-02-15T00:39:12.629Z,103019.03
2023-02-15T00:41:44.481Z,103014.66
2023-02-15T00:47:14.206Z,103023.47
2023-02-15T00:49:48.320Z,103024.34
2023-02-15T00:52:20.789Z,103014.59
2023-02-15T00:54:59.937Z,103004.78
2023-02-15T00:57:29.980Z,103013.69
2023-02-15T00:59:59.140Z,102998.66
2023-02-15T01:02:29.058Z,102995.03
2023-02-15T01:04:58.856Z,102999.53
2023-02-15T01:07:44.756Z,102998.66
2023-02-15T01:10:27.372Z,102995.97
2023-02-15T01:12:57.419Z,102994.19
2023-02-15T01:15:26.930Z,102994.09
2023-02-15T01:17:56.889Z,102985.28
2023-02-15T01:20:36.647Z,102982.63
2023-02-15T01:25:56.470Z,102960.44
2023-02-15T01:28:46.311Z,102970.25
2023-02-15T01:31:23.395Z,102965.81
2023-02-15T01:33:54.068Z,102971.06
2023-02-15T01:36:25.478Z,102961.22
2023-02-15T01:38:57.752Z,102959.56
2023-02-15T01:41:32.936Z,102959.53
2023-02-15T01:44:07.451Z,102953.38
2023-02-15T01:46:43.362Z,102954.28
2023-02-15T01:49:20.577Z,102948.09
2023-02-15T01:51:54.067Z,102944.56
2023-02-15T01:54:32.670Z,102946.28
2023-02-15T01:57:16.312Z,102937.44
2023-02-15T02:00:03.526Z,102945.41
2023-02-15T02:02:47.443Z,102941.81
2023-02-15T02:05:32.313Z,102942.63
2023-02-15T02:08:04.786Z,102945.38
2023-02-15T02:10:38.236Z,102937.44
2023-02-15T02:13:10.074Z,102936.50
2023-02-15T02:15:50.629Z,102934.72
2023-02-15T02:18:51.987Z,102927.59
2023-02-15T02:22:14.559Z,102928.56
2023-02-15T02:25:41.153Z,102935.53
2023-02-15T02:28:35.885Z,102924.94
2023-02-15T02:31:52.104Z,102916.13
2023-02-15T02:37:27.802Z,102915.22
2023-02-15T02:40:05.312Z,102909.97
2023-02-15T02:42:41.966Z,102898.44
2023-02-15T02:45:29.827Z,102904.63
2023-02-15T02:48:05.448Z,102906.38
2023-02-15T02:50:36.516Z,102904.59
2023-02-15T02:53:08.047Z,102904.59
2023-02-15T02:55:55.305Z,102894.00
2023-02-15T02:58:35.733Z,102887.81
2023-02-15T03:01:22.418Z,102890.47
2023-02-15T03:03:57.213Z,102884.22
2023-02-15T03:06:37.796Z,102887.75
2023-02-15T03:09:22.683Z,102877.09
2023-02-15T03:11:52.708Z,102876.19
2023-02-15T03:14:26.406Z,102868.22
2023-02-15T03:17:05.264Z,102869.16
2023-02-15T03:19:36.592Z,102858.47
2023-02-15T03:22:13.177Z,102860.25
2023-02-15T03:24:52.693Z,102853.19
2023-02-15T03:27:29.811Z,102858.50
2023-02-15T03:30:02.254Z,102846.16
2023-02-15T03:32:37.508Z,102854.06
2023-02-15T03:35:06.398Z,102854.94
2023-02-15T03:37:42.941Z,102855.91
2023-02-15T03:40:38.142Z,102863.91
2023-02-15T03:43:16.182Z,102850.66
2023-02-15T03:45:57.218Z,102856.91
2023-02-15T03:48:32.815Z,102846.22
2023-02-15T03:51:33.427Z,102848.03
2023-02-15T03:54:08.859Z,102842.72
2023-02-15T03:56:38.873Z,102844.53
2023-02-15T03:59:25.821Z,102853.41
2023-02-15T04:02:11.865Z,102846.34
2023-02-15T04:04:46.342Z,102842.84
2023-02-15T04:07:18.018Z,102839.34
2023-02-15T04:10:06.454Z,102838.41
2023-02-15T04:12:35.229Z,102833.06
2023-02-15T04:15:21.995Z,102837.59
2023-02-15T04:17:50.947Z,102842.84
2023-02-15T04:33:38.896Z,102827.91
2023-02-15T04:36:12.219Z,102833.84
2023-02-15T04:38:42.108Z,102828.84
2023-02-15T04:41:18.558Z,102827.91
2023-02-15T04:43:53.496Z,102821.88
2023-02-15T04:46:24.740Z,102816.56
2023-02-15T04:48:54.282Z,102814.78
2023-02-15T04:51:23.588Z,102807.75
2023-02-15T04:53:54.989Z,102810.38
2023-02-15T04:56:25.615Z,102797.16
2023-02-15T04:58:58.624Z,102793.59
2023-02-15T05:01:28.668Z,102793.56
2023-02-15T05:03:58.997Z,102800.66
2023-02-15T05:06:28.193Z,102794.50
2023-02-15T05:09:07.485Z,102795.34
2023-02-15T05:11:40.858Z,102804.09
2023-02-15T05:14:14.378Z,102809.38
2023-02-15T05:16:48.502Z,102813.72
2023-02-15T05:19:32.451Z,102804.06
2023-02-15T05:22:02.547Z,102803.25
2023-02-15T05:24:49.082Z,102803.25
2023-02-15T05:27:40.319Z,102797.16
2023-02-15T05:30:24.014Z,102802.44
2023-02-15T05:32:54.691Z,102801.50
2023-02-15T05:35:40.306Z,102795.34
2023-02-15T05:38:13.211Z,102792.66
2023-02-15T05:43:39.548Z,102793.59
2023-02-15T05:49:14.298Z,102795.31
2023-02-15T05:51:44.438Z,102792.66
2023-02-15T05:54:17.508Z,102782.06
2023-02-15T05:56:59.706Z,102785.59
2023-02-15T05:59:33.729Z,102791.78
2023-02-15T06:02:20.008Z,102783.81
2023-02-15T06:04:49.528Z,102781.13
2023-02-15T06:07:25.358Z,102782.91
2023-02-15T06:12:37.897Z,102773.16
2023-02-15T06:18:15.516Z,102777.59
2023-02-15T06:21:01.328Z,102775.81
2023-02-15T06:29:09.037Z,102777.56
2023-02-15T06:31:52.922Z,102783.72
2023-02-15T06:37:33.126Z,102780.13
2023-02-15T06:43:06.475Z,102781.03
2023-02-15T06:45:43.271Z,102784.69
2023-02-15T06:48:13.881Z,102776.63
2023-02-15T06:51:12.780Z,102782.78
2023-02-15T06:53:47.718Z,102782.91
2023-02-15T06:56:25.081Z,102778.44
2023-02-15T06:59:03.131Z,102779.47
2023-02-15T07:04:31.741Z,102784.66
2023-02-15T07:09:53.521Z,102783.81
2023-02-15T08:23:54.129Z,102717.75
2023-02-15T08:26:28.582Z,102718.63
2023-02-15T08:28:58.356Z,102714.22
2023-02-15T08:31:28.133Z,102709.75
2023-02-15T08:34:02.698Z,102711.56
2023-02-15T08:36:35.433Z,102708.00
2023-02-15T08:39:09.557Z,102700.91
2023-02-15T08:41:41.722Z,102704.28
2023-02-15T08:44:12.655Z,102703.38
2023-02-15T08:46:47.230Z,102706.00
2023-02-15T08:49:21.194Z,102706.16
2023-02-15T08:51:51.854Z,102710.38
2023-02-15T08:54:24.128Z,102715.66
2023-02-15T08:56:54.063Z,102711.28
2023-02-15T08:59:28.256Z,102706.44
2023-02-15T09:01:59.157Z,102701.91
2023-02-15T09:04:28.808Z,102699.53
2023-02-15T09:06:58.964Z,102692.19
2023-02-15T09:09:29.806Z,102691.31
2023-02-15T09:11:59.813Z,102695.75
2023-02-15T09:14:30.862Z,102697.59
2023-02-15T09:17:00.489Z,102697.66
2023-02-15T09:19:33.796Z,102694.34
2023-02-15T09:22:06.657Z,102686.88
2023-02-15T09:24:40.473Z,102687.00
2023-02-15T09:27:13.706Z,102683.16
2023-02-15T09:29:43.612Z,102675.66
2023-02-15T09:32:21.154Z,102671.91
2023-02-15T09:34:54.209Z,102673.66
2023-02-15T09:37:23.137Z,102668.31
2023-02-15T09:39:53.447Z,102675.06
2023-02-15T09:42:51.520Z,102672.78
2023-02-15T09:45:35.455Z,102677.56
2023-02-15T09:48:29.948Z,102682.84
2023-02-15T09:51:23.783Z,102673.13
2023-02-15T09:54:19.564Z,102685.03
2023-02-15T09:57:03.297Z,102685.28
2023-02-15T09:59:43.260Z,102681.56
2023-02-15T10:02:30.638Z,102673.25
2023-02-15T10:05:21.067Z,102683.75
2023-02-15T10:08:26.390Z,102691.47
2023-02-15T10:11:24.673Z,102690.34
2023-02-15T10:14:15.298Z,102701.75
2023-02-15T10:17:00.192Z,102683.31
2023-02-15T10:19:43.566Z,102696.78
2023-02-15T10:22:30.303Z,102695.91
2023-02-15T10:25:39.172Z,102699.22
2023-02-15T10:28:18.664Z,102696.13
2023-02-15T10:30:52.759Z,102698.31
2023-02-15T10:33:40.520Z,102684.97
2023-02-15T10:36:29.142Z,102690.88
2023-02-15T10:39:10.206Z,102684.94
2023-02-15T10:41:50.397Z,102679.88
2023-02-15T10:44:50.809Z,102679.50
2023-02-15T10:47:51.531Z,102678.44
2023-02-15T10:50:46.017Z,102666.75
2023-02-15T10:53:45.805Z,102660.22
2023-02-15T10:56:37.409Z,102663.66
2023-02-15T10:59:29.256Z,102654.09
2023-02-15T11:02:15.235Z,102663.09
2023-02-15T11:05:23.266Z,102653.69
2023-02-15T11:07:59.086Z,102647.59
2023-02-15T11:10:38.261Z,102645.94
2023-02-15T11:13:12.993Z,102645.19
2023-02-15T11:15:48.149Z,102645.44
2023-02-15T11:18:25.206Z,102639.78
2023-02-15T11:21:01.244Z,102622.38
2023-02-15T11:23:32.042Z,102624.66
2023-02-15T11:26:04.922Z,102620.22
2023-02-15T11:28:39.117Z,102613.53
2023-02-15T11:31:21.326Z,102612.03
2023-02-15T11:33:54.909Z,102608.63
2023-02-15T11:36:31.322Z,102604.72
2023-02-15T11:39:11.419Z,102608.25
2023-02-15T11:41:52.822Z,102595.03
2023-02-15T11:44:34.995Z,102592.78
2023-02-15T11:47:05.270Z,102582.25
2023-02-15T11:49:37.204Z,102574.00
2023-02-15T11:52:13.274Z,102570.47
2023-02-15T11:54:46.122Z,102569.56
2023-02-15T11:57:23.251Z,102557.44
2023-02-15T12:00:00.501Z,102551.31
2023-02-15T12:02:31.901Z,102555.50
2023-02-15T12:05:04.100Z,102552.41
2023-02-15T12:07:41.227Z,102547.38
2023-02-15T12:10:29.963Z,102554.81
2023-02-15T12:13:16.956Z,102554.38
2023-02-15T12:15:53.697Z,102546.41
2023-02-15T12:18:43.011Z,102544.34
2023-02-15T12:21:28.425Z,102543.09
2023-02-15T12:24:14.518Z,102530.50
2023-02-15T12:26:46.765Z,102540.97
2023-02-15T12:32:24.058Z,102542.66
2023-02-15T12:35:01.364Z,102535.63
2023-02-15T12:37:39.334Z,102531.91
2023-02-15T12:40:31.587Z,102524.34
2023-02-15T12:43:10.253Z,102524.66
2023-02-15T12:45:45.349Z,102526.63
2023-02-15T12:48:23.352Z,102518.00
2023-02-15T12:51:28.276Z,102520.38
2023-02-15T12:54:05.580Z,102521.78
2023-02-15T12:56:41.490Z,102524.34
2023-02-15T12:59:23.238Z,102522.06
2023-02-15T13:01:57.378Z,102531.16
2023-02-15T13:04:31.046Z,102516.31
2023-02-15T13:07:04.321Z,102513.88
2023-02-15T13:09:42.257Z,102499.41
2023-02-15T13:12:24.602Z,102507.31
2023-02-15T13:14:58.340Z,102510.53
2023-02-15T13:17:31.108Z,102509.66
2023-02-15T13:20:04.229Z,102499.13
2023-02-15T13:22:43.938Z,102499.53
2023-02-15T13:25:22.179Z,102505.53
2023-02-15T13:27:58.187Z,102496.81
2023-02-15T13:30:33.596Z,102494.63
2023-02-15T13:33:07.240Z,102494.75
2023-02-15T13:35:53.246Z,102500.28
2023-02-15T13:39:28.511Z,102502.19
2023-02-15T13:42:08.212Z,102499.19
2023-02-15T13:45:11.158Z,102501.44
2023-02-15T13:47:58.796Z,102494.28
2023-02-15T13:50:55.724Z,102497.34
2023-02-15T13:54:00.680Z,102487.50
2023-02-15T13:56:38.805Z,102482.63
2023-02-15T13:59:32.320Z,102480.81
2023-02-15T14:02:32.883Z,102486.59
2023-02-15T14:05:32.273Z,102483.88
2023-02-15T14:08:14.037Z,102481.50
2023-02-15T14:10:55.974Z,102472.38
2023-02-15T14:14:14.622Z,102471.63
2023-02-15T14:17:06.786Z,102472.19
2023-02-15T14:19:47.415Z,102471.03
2023-02-15T14:22:29.415Z,102466.66
2023-02-15T14:25:19.617Z,102465.41
2023-02-15T14:28:00.655Z,102468.72
2023-02-15T14:30:34.107Z,102464.72
2023-02-15T14:33:10.213Z,102461.72
2023-02-15T14:35:43.884Z,102463.06
2023-02-15T14:38:54.090Z,102457.78
2023-02-15T14:41:31.224Z,102465.00
2023-02-15T14:44:11.254Z,102459.41
2023-02-15T14:46:52.217Z,102462.56
2023-02-15T14:49:26.574Z,102474.34
2023-02-15T14:52:13.660Z,102471.41
2023-02-15T14:55:06.520Z,102463.34
2023-02-15T14:57:37.384Z,102465.09
2023-02-15T15:00:39.375Z,102465.66
2023-02-15T15:03:24.801Z,102463.84
2023-02-15T15:06:00.625Z,102465.75
2023-02-15T15:08:39.576Z,102467.66
2023-02-15T15:11:51.214Z,102451.28
2023-02-15T15:14:44.898Z,102456.47
2023-02-15T15:17:19.459Z,102460.59
2023-02-15T15:20:14.616Z,102461.63
2023-02-15T15:22:46.018Z,102461.66
2023-02-15T15:25:46.686Z,102458.91
2023-02-15T15:29:02.159Z,102464.94
2023-02-15T15:31:50.214Z,102452.63
2023-02-15T15:35:03.492Z,102432.16
2023-02-15T15:38:08.838Z,102441.44
2023-02-15T15:41:26.615Z,102436.59
2023-02-15T15:44:58.660Z,102445.63
2023-02-15T15:47:56.136Z,102434.34
2023-02-15T15:50:35.647Z,102426.34
2023-02-15T15:53:07.432Z,102425.97
2023-02-15T15:55:39.080Z,102426.94
2023-02-15T15:58:13.183Z,102425.47
2023-02-15T16:00:49.488Z,102430.75
2023-02-15T16:03:25.762Z,102422.53
2023-02-15T16:05:56.721Z,102424.66
2023-02-15T16:08:36.010Z,102422.94
2023-02-15T16:11:20.856Z,102432.22
2023-02-15T16:13:56.529Z,102439.16
2023-02-15T16:16:29.114Z,102439.22
2023-02-15T16:19:02.934Z,102430.16
2023-02-15T16:21:44.675Z,102424.97
2023-02-15T16:24:53.557Z,102421.59
2023-02-15T16:27:43.104Z,102426.06
2023-02-15T16:30:44.375Z,102427.56
2023-02-15T16:33:16.355Z,102419.28
2023-02-15T16:36:00.635Z,102430.53
2023-02-15T16:39:09.058Z,102426.63
2023-02-15T16:41:47.002Z,102426.25
2023-02-15T16:44:21.981Z,102421.81
2023-02-15T16:46:56.458Z,102433.09
2023-02-15T16:49:32.184Z,102426.00
2023-02-15T16:52:04.707Z,102427.63
2023-02-15T16:57:46.285Z,102418.34
2023-02-15T17:00:24.774Z,102415.78
2023-02-15T17:03:02.678Z,102427.84
2023-02-15T17:05:36.446Z,102430.03
2023-02-15T17:08:21.725Z,102424.75
2023-02-15T17:11:18.302Z,102425.59
2023-02-15T17:14:29.934Z,102424.25
2023-02-15T17:17:31.300Z,102425.91
2023-02-15T17:20:01.994Z,102426.44
2023-02-15T17:22:32.782Z,102436.94
2023-02-15T17:25:18.897Z,102441.47
2023-02-15T17:27:55.073Z,102447.53
2023-02-15T17:30:33.344Z,102452.00
2023-02-15T17:33:12.256Z,102458.47
2023-02-15T17:38:44.803Z,102470.41
2023-02-15T17:44:15.303Z,102464.09
2023-02-15T17:46:46.355Z,102462.09
2023-02-15T17:49:35.001Z,102458.47
2023-02-15T17:52:08.934Z,102448.81
2023-02-15T17:54:55.834Z,102450.81
2023-02-15T17:57:29.015Z,102448.22
2023-02-15T18:00:16.719Z,102451.81
2023-02-15T18:03:07.928Z,102443.56
2023-02-15T18:05:54.274Z,102456.66
2023-02-15T18:08:48.653Z,102456.13
2023-02-15T18:11:37.647Z,102457.44
2023-02-15T18:14:09.249Z,102462.78
2023-02-15T18:16:43.509Z,102457.31
2023-02-15T18:19:19.438Z,102461.88
2023-02-15T18:21:49.975Z,102466.28
2023-02-15T18:24:27.911Z,102463.81
2023-02-15T18:26:57.603Z,102460.63
2023-02-15T18:29:27.374Z,102472.34
2023-02-15T18:31:58.373Z,102460.22
2023-02-15T18:34:32.312Z,102462.00
2023-02-15T18:37:03.707Z,102450.88
2023-02-15T18:39:41.090Z,102454.31
2023-02-15T18:42:29.308Z,102458.78
2023-02-15T18:47:47.533Z,102453.31
2023-02-15T18:50:18.721Z,102447.84
2023-02-15T18:52:51.424Z,102453.31
2023-02-15T18:55:27.208Z,102442.25
2023-02-15T18:57:58.974Z,102459.84
2023-02-15T19:00:33.223Z,102451.09
2023-02-15T19:03:05.560Z,102460.34
2023-02-15T19:05:37.338Z,102453.03
2023-02-15T19:08:09.580Z,102453.75
2023-02-15T19:10:43.342Z,102453.84
2023-02-15T19:13:30.034Z,102450.28
2023-02-15T19:16:00.776Z,102450.81
2023-02-15T19:18:35.231Z,102445.31
2023-02-15T19:21:08.243Z,102443.25
2023-02-15T19:23:37.985Z,102438.00
2023-02-15T19:26:08.966Z,102429.81
2023-02-15T19:28:39.586Z,102427.50
2023-02-15T19:31:14.127Z,102442.66
2023-02-15T19:33:44.408Z,102434.28
2023-02-15T19:36:24.022Z,102437.59
2023-02-15T19:38:56.856Z,102434.72
2023-02-15T19:41:34.929Z,102434.22
2023-02-15T19:44:04.523Z,102432.50
2023-02-15T19:46:38.478Z,102443.22
2023-02-15T19:49:12.529Z,102445.53
2023-02-15T19:51:42.768Z,102434.44
2023-02-15T19:54:32.470Z,102429.72
2023-02-15T19:57:03.815Z,102423.28
2023-02-15T19:59:37.504Z,102430.72
2023-02-15T20:02:09.355Z,102425.78
2023-02-15T20:04:38.017Z,102415.09
2023-02-15T20:07:27.065Z,102421.09
2023-02-15T20:09:59.325Z,102414.75
2023-02-15T20:12:30.611Z,102417.75
2023-02-15T20:15:02.028Z,102417.03
2023-02-15T20:17:31.273Z,102418.66
2023-02-15T20:20:00.485Z,102423.34
2023-02-15T20:22:29.818Z,102425.50
2023-02-15T20:25:00.095Z,102426.56
2023-02-15T20:27:30.679Z,102429.72
2023-02-15T20:30:07.092Z,102424.31
2023-02-15T20:32:36.058Z,102433.06
2023-02-15T20:35:05.429Z,102424.78
2023-02-15T20:37:35.095Z,102420.13
2023-02-15T20:40:17.641Z,102428.41
2023-02-15T20:43:05.144Z,102407.13
2023-02-15T20:45:35.754Z,102411.22
2023-02-15T20:54:01.932Z,102416.56
2023-02-15T20:56:36.326Z,102421.66
2023-02-15T20:59:32.148Z,102413.13
2023-02-15T21:02:22.382Z,102414.81
2023-02-15T21:04:53.244Z,102417.56
2023-02-15T21:07:27.412Z,102414.16
2023-02-15T21:09:56.844Z,102420.72
2023-02-15T21:12:34.071Z,102424.47
2023-02-15T21:15:26.056Z,102434.38
2023-02-15T21:17:57.406Z,102430.50
2023-02-15T21:20:28.684Z,102425.34
2023-02-15T21:22:58.893Z,102427.94
2023-02-15T21:25:35.235Z,102432.31
2023-02-15T21:28:05.119Z,102426.34
2023-02-15T21:30:37.905Z,102421.09
2023-02-15T21:33:07.506Z,102424.66
2023-02-15T21:35:40.561Z,102430.19
2023-02-15T21:38:17.930Z,102423.91
2023-02-15T21:40:47.530Z,102431.69
2023-02-15T21:43:35.733Z,102421.34
2023-02-15T21:46:33.077Z,102417.00
2023-02-15T21:49:02.566Z,102419.97
2023-02-15T21:51:51.789Z,102416.81
2023-02-15T21:54:25.359Z,102411.25
2023-02-15T21:56:54.730Z,102413.03
2023-02-15T21:59:28.238Z,102406.19
2023-02-15T22:02:00.979Z,102412.00
2023-02-15T22:04:35.513Z,102413.69
2023-02-15T22:07:06.130Z,102417.81
2023-02-15T22:09:35.309Z,102412.75
2023-02-15T22:12:05.985Z,102413.84
2023-02-15T22:14:44.003Z,102417.50
2023-02-15T22:17:21.360Z,102413.06
2023-02-15T22:19:54.425Z,102420.31
2023-02-15T22:22:23.840Z,102425.34
2023-02-15T22:24:56.367Z,102418.56
2023-02-15T22:27:27.827Z,102424.69
2023-02-15T22:29:58.414Z,102420.72
2023-02-15T22:32:30.461Z,102419.03
2023-02-15T22:35:00.219Z,102419.22
2023-02-15T22:37:29.781Z,102420.66
2023-02-15T22:39:59.726Z,102414.97
2023-02-15T22:42:30.669Z,102411.50
2023-02-15T22:45:01.775Z,102414.50
2023-02-15T22:47:34.730Z,102415.72
2023-02-15T22:50:06.301Z,102417.19
2023-02-15T22:52:35.694Z,102417.22
2023-02-15T22:55:06.250Z,102411.03
2023-02-15T22:57:37.759Z,102405.22
2023-02-15T23:00:10.872Z,102413.69
2023-02-15T23:02:42.745Z,102415.97
2023-02-15T23:05:22.217Z,102417.19
2023-02-15T23:07:53.456Z,102406.84
2023-02-15T23:10:27.611Z,102420.28
2023-02-15T23:13:16.470Z,102414.63
2023-02-15T23:15:49.267Z,102418.47
2023-02-15T23:18:24.109Z,102420.50
2023-02-15T23:20:56.956Z,102413.97
2023-02-15T23:23:35.411Z,102415.03
2023-02-15T23:26:06.857Z,102416.03
2023-02-15T23:28:40.266Z,102408.16
2023-02-15T23:31:20.371Z,102411.34
2023-02-15T23:33:52.881Z,102411.41
2023-02-15T23:36:32.340Z,102414.47
2023-02-15T23:39:22.278Z,102412.25
2023-02-15T23:41:51.219Z,102410.88
2023-02-15T23:44:21.169Z,102409.38
2023-02-15T23:46:51.612Z,102406.72
2023-02-15T23:49:22.554Z,102402.00
2023-02-15T23:51:54.766Z,102416.34
2023-02-15T23:54:26.477Z,102420.56
2023-02-15T23:57:01.338Z,102413.53
2023-02-15T23:59:40.283Z,102415.13
